createdAt,value
2017-03-01T00:00:30.543Z,53.20
2017-03-01T00:01:28.172Z,53.10
2017-03-01T00:02:36.337Z,53.20
2017-03-01T00:03:28.486Z,53.10
2017-03-01T00:04:29.782Z,53.20
2017-03-01T00:05:39.144Z,53.20
2017-03-01T00:06:32.226Z,53.20
2017-03-01T00:07:28.262Z,is
2017-03-01T00:08:28.313Z,53.20
2017-03-01T00:09:36.436Z,53.20
2017-03-01T00:10:31.055Z,53.30
2017-03-01T00:11:33.152Z,is
2017-03-01T00:12:36.325Z,53.20
2017-03-01T00:13:30.258Z,53.40
2017-03-01T00:14:32.691Z,53.20
2017-03-01T00:15:32.258Z,53.20
2017-03-01T00:16:32.448Z,53.30
2017-03-01T00:17:29.194Z,53.30
2017-03-01T00:18:30.624Z,53.30
2017-03-01T00:19:35.433Z,53.20
2017-03-01T00:20:36.463Z,53.30
2017-03-01T00:21:36.434Z,53.40
2017-03-01T00:22:36.432Z,53.30
2017-03-01T00:23:31.208Z,53.40
2017-03-01T00:24:35.761Z,53.30
2017-03-01T00:25:41.404Z,53.40
2017-03-01T00:26:42.223Z,53.30
2017-03-01T00:27:42.533Z,53.40
2017-03-01T00:28:27.985Z,53.40
2017-03-01T00:29:38.286Z,53.20
2017-03-01T00:30:32.114Z,53.30
2017-03-01T00:31:36.738Z,53.40
2017-03-01T00:32:28.425Z,53.50
2017-03-01T00:33:37.955Z,53.40
2017-03-01T00:34:28.354Z,53.40
2017-03-01T00:35:45.732Z,53.40
2017-03-01T00:36:28.437Z,53.40
2017-03-01T00:37:42.182Z,53.40
2017-03-01T00:38:32.173Z,53.40
2017-03-01T00:39:30.270Z,53.40
2017-03-01T00:40:32.080Z,53.40
2017-03-01T00:41:21.940Z,53.40
2017-03-01T00:42:29.082Z,53.40
2017-03-01T00:43:32.482Z,53.50
2017-03-01T00:44:33.014Z,53.50
2017-03-01T00:45:34.511Z,53.30
2017-03-01T00:46:36.944Z,53.50
2017-03-01T00:47:42.401Z,53.50
2017-03-01T00:48:30.581Z,53.50
2017-03-01T00:49:38.206Z,53.50
2017-03-01T00:50:32.186Z,53.30
2017-03-01T00:51:32.604Z,53.50
2017-03-01T00:52:27.583Z,53.40
2017-03-01T00:53:32.256Z,53.40
2017-03-01T00:54:32.916Z,53.50
2017-03-01T00:55:33.246Z,53.40
2017-03-01T00:56:33.967Z,53.50
2017-03-01T00:57:29.362Z,53.50
2017-03-01T00:58:30.294Z,53.60
2017-03-01T00:59:33.477Z,53.50
2017-03-01T01:00:32.990Z,53.60
2017-03-01T01:01:38.257Z,53.40
2017-03-01T01:02:32.719Z,53.60
2017-03-01T01:03:36.444Z,53.60
2017-03-01T01:04:29.434Z,53.70
2017-03-01T01:05:32.183Z,is
2017-03-01T01:06:35.094Z,53.60
2017-03-01T01:07:32.288Z,53.50
2017-03-01T01:08:39.496Z,53.50
2017-03-01T01:09:32.633Z,53.50
2017-03-01T01:10:32.420Z,53.50
2017-03-01T01:11:33.807Z,53.50
2017-03-01T01:12:31.984Z,53.50
2017-03-01T01:13:32.240Z,53.60
2017-03-01T01:14:36.913Z,53.70
2017-03-01T01:15:42.187Z,53.50
2017-03-01T01:16:37.793Z,53.60
2017-03-01T01:17:33.779Z,53.50
2017-03-01T01:18:32.057Z,53.60
2017-03-01T01:19:37.275Z,53.60
2017-03-01T01:20:37.620Z,53.60
2017-03-01T01:21:26.643Z,53.60
2017-03-01T01:22:37.246Z,53.50
2017-03-01T01:23:32.859Z,53.50
2017-03-01T01:24:32.394Z,54.10
2017-03-01T01:25:32.238Z,53.70
2017-03-01T01:26:28.315Z,is
2017-03-01T01:27:27.332Z,53.70
2017-03-01T01:28:42.522Z,is
2017-03-01T01:29:38.080Z,53.80
2017-03-01T01:30:44.555Z,53.80
2017-03-01T01:31:33.223Z,53.70
2017-03-01T01:32:38.018Z,53.70
2017-03-01T01:33:32.553Z,53.70
2017-03-01T01:34:32.071Z,53.80
2017-03-01T01:35:28.214Z,53.80
2017-03-01T01:36:32.282Z,53.80
2017-03-01T01:37:28.147Z,is
2017-03-01T01:38:26.928Z,53.70
2017-03-01T01:39:26.855Z,53.80
2017-03-01T01:40:31.862Z,53.80
2017-03-01T01:41:36.869Z,is
2017-03-01T01:42:38.301Z,53.80
2017-03-01T01:43:32.002Z,53.80
2017-03-01T01:44:46.453Z,53.80
2017-03-01T01:45:30.252Z,53.80
2017-03-01T01:46:34.057Z,53.80
2017-03-01T01:47:32.327Z,53.80
2017-03-01T01:48:42.594Z,53.80
2017-03-01T01:49:36.835Z,53.80
2017-03-01T01:50:36.589Z,53.90
2017-03-01T01:51:36.319Z,53.90
2017-03-01T01:52:32.680Z,is
2017-03-01T01:53:31.127Z,53.90
2017-03-01T01:54:32.694Z,is
2017-03-01T01:55:32.411Z,53.80
2017-03-01T01:56:28.786Z,54.00
2017-03-01T01:57:36.277Z,53.90
2017-03-01T01:58:34.655Z,53.90
2017-03-01T01:59:26.675Z,53.90
2017-03-01T02:00:36.814Z,53.90
2017-03-01T02:01:38.524Z,53.90
2017-03-01T02:02:28.411Z,53.90
2017-03-01T02:03:32.384Z,53.90
2017-03-01T02:04:32.678Z,53.90
2017-03-01T02:05:36.182Z,53.90
2017-03-01T02:06:31.911Z,54.20
2017-03-01T02:07:37.623Z,54.00
2017-03-01T02:08:33.743Z,53.90
2017-03-01T02:09:39.431Z,53.90
2017-03-01T02:10:33.494Z,54.00
2017-03-01T02:11:27.795Z,54.00
2017-03-01T02:12:32.447Z,54.00
2017-03-01T02:13:37.447Z,is
2017-03-01T02:14:26.630Z,54.00
2017-03-01T02:15:36.258Z,54.00
2017-03-01T02:16:36.775Z,54.00
2017-03-01T02:17:32.668Z,54.00
2017-03-01T02:18:28.785Z,54.00
2017-03-01T02:19:34.272Z,54.20
2017-03-01T02:20:32.875Z,is
2017-03-01T02:21:35.787Z,54.00
2017-03-01T02:22:36.888Z,54.10
2017-03-01T02:23:42.116Z,54.00
2017-03-01T02:24:36.469Z,54.10
2017-03-01T02:25:35.117Z,54.10
2017-03-01T02:26:30.263Z,54.10
2017-03-01T02:27:36.239Z,54.20
2017-03-01T02:28:32.162Z,54.20
2017-03-01T02:29:30.507Z,54.10
2017-03-01T02:30:32.083Z,54.10
2017-03-01T02:31:36.710Z,54.10
2017-03-01T02:32:32.089Z,54.10
2017-03-01T02:33:36.463Z,54.00
2017-03-01T02:34:46.806Z,54.10
2017-03-01T02:35:30.380Z,54.10
2017-03-01T02:36:26.551Z,54.10
2017-03-01T02:37:32.341Z,54.10
2017-03-01T02:38:27.992Z,is
2017-03-01T02:39:28.210Z,54.10
2017-03-01T02:40:32.030Z,54.20
2017-03-01T02:41:28.362Z,54.10
2017-03-01T02:42:32.606Z,54.10
2017-03-01T02:43:31.105Z,54.20
2017-03-01T02:44:28.470Z,54.30
2017-03-01T02:45:35.817Z,54.10
2017-03-01T02:46:36.848Z,54.20
2017-03-01T02:47:33.209Z,54.10
2017-03-01T02:48:34.978Z,54.20
2017-03-01T02:49:31.127Z,54.20
2017-03-01T02:50:28.316Z,54.20
2017-03-01T02:51:36.932Z,54.20
2017-03-01T02:52:33.415Z,54.20
2017-03-01T02:53:30.387Z,54.20
2017-03-01T02:54:32.333Z,54.20
2017-03-01T02:55:27.872Z,54.30
2017-03-01T02:56:40.815Z,54.30
2017-03-01T02:57:28.381Z,54.30
2017-03-01T02:58:33.326Z,54.20
2017-03-01T02:59:32.597Z,54.30
2017-03-01T03:00:36.433Z,54.30
2017-03-01T03:01:36.324Z,54.30
2017-03-01T03:02:32.708Z,54.30
2017-03-01T03:03:33.556Z,54.40
2017-03-01T03:04:32.120Z,54.30
2017-03-01T03:05:31.226Z,54.40
2017-03-01T03:06:27.636Z,54.40
2017-03-01T03:07:32.017Z,54.40
2017-03-01T03:08:28.069Z,54.30
2017-03-01T03:09:32.556Z,is
2017-03-01T03:10:30.110Z,54.20
2017-03-01T03:11:29.436Z,is
2017-03-01T03:12:33.232Z,is
2017-03-01T03:13:26.938Z,54.30
2017-03-01T03:14:28.005Z,54.30
2017-03-01T03:15:27.187Z,is
2017-03-01T03:16:36.238Z,54.40
2017-03-01T03:17:28.191Z,54.40
2017-03-01T03:18:27.857Z,is
2017-03-01T03:19:28.329Z,54.50
2017-03-01T03:20:36.548Z,54.50
2017-03-01T03:21:35.916Z,54.50
2017-03-01T03:22:26.141Z,54.40
2017-03-01T03:23:31.984Z,54.40
2017-03-01T03:24:32.181Z,54.40
2017-03-01T03:25:42.009Z,54.50
2017-03-01T03:26:36.998Z,54.50
2017-03-01T03:27:27.880Z,54.50
2017-03-01T03:28:32.563Z,54.50
2017-03-01T03:29:32.408Z,54.80
2017-03-01T03:30:28.339Z,54.60
2017-03-01T03:31:36.919Z,54.50
2017-03-01T03:32:24.674Z,54.50
2017-03-01T03:33:27.701Z,54.60
2017-03-01T03:34:35.607Z,54.50
2017-03-01T03:35:33.737Z,54.50
2017-03-01T03:36:36.544Z,54.50
2017-03-01T03:37:32.433Z,54.50
2017-03-01T03:38:32.467Z,54.60
2017-03-01T03:39:36.836Z,54.60
2017-03-01T03:40:28.250Z,54.70
2017-03-01T03:41:36.408Z,54.60
2017-03-01T03:42:32.087Z,54.50
2017-03-01T03:43:32.094Z,is
2017-03-01T03:44:32.188Z,54.50
2017-03-01T03:45:37.312Z,54.60
2017-03-01T03:46:36.878Z,54.60
2017-03-01T03:47:32.043Z,54.50
2017-03-01T03:48:32.117Z,54.50
2017-03-01T03:49:35.269Z,54.60
2017-03-01T03:50:36.826Z,54.50
2017-03-01T03:51:28.012Z,54.70
2017-03-01T03:52:28.671Z,54.60
2017-03-01T03:53:37.224Z,54.60
2017-03-01T03:54:35.700Z,54.60
2017-03-01T03:55:26.451Z,54.50
2017-03-01T03:56:32.561Z,54.60
2017-03-01T03:57:26.395Z,54.60
2017-03-01T03:58:36.973Z,54.60
2017-03-01T03:59:32.956Z,54.50
2017-03-01T04:00:32.160Z,54.80
2017-03-01T04:01:32.689Z,is
2017-03-01T04:02:22.129Z,54.60
2017-03-01T04:03:42.397Z,54.60
2017-03-01T04:04:32.821Z,54.60
2017-03-01T04:05:35.199Z,54.60
2017-03-01T04:06:36.340Z,54.60
2017-03-01T04:07:36.429Z,54.70
2017-03-01T04:08:31.472Z,54.50
2017-03-01T04:09:36.079Z,54.60
2017-03-01T04:10:38.069Z,54.90
2017-03-01T04:11:34.523Z,54.60
2017-03-01T04:12:39.768Z,54.60
2017-03-01T04:13:33.452Z,54.70
2017-03-01T04:14:28.051Z,is
2017-03-01T04:15:37.049Z,54.70
2017-03-01T04:16:42.995Z,54.60
2017-03-01T04:17:42.548Z,54.70
2017-03-01T04:18:32.142Z,54.80
2017-03-01T04:19:28.151Z,54.70
2017-03-01T04:20:36.468Z,54.70
2017-03-01T04:21:37.029Z,54.60
2017-03-01T04:22:36.543Z,54.70
2017-03-01T04:23:31.830Z,54.70
2017-03-01T04:24:33.232Z,54.70
2017-03-01T04:25:27.241Z,54.80
2017-03-01T04:26:32.426Z,54.70
2017-03-01T04:27:33.341Z,is
2017-03-01T04:28:37.725Z,54.70
2017-03-01T04:29:36.910Z,54.70
2017-03-01T04:30:32.579Z,54.70
2017-03-01T04:31:37.213Z,54.80
2017-03-01T04:32:36.519Z,54.70
2017-03-01T04:33:33.442Z,54.60
2017-03-01T04:34:36.631Z,55.00
2017-03-01T04:35:33.395Z,54.80
2017-03-01T04:36:28.437Z,54.70
2017-03-01T04:37:32.109Z,54.70
2017-03-01T04:38:32.281Z,54.70
2017-03-01T04:39:27.706Z,54.70
2017-03-01T04:40:38.231Z,54.80
2017-03-01T04:41:31.035Z,54.80
2017-03-01T04:42:27.783Z,is
2017-03-01T04:43:28.052Z,is
2017-03-01T04:44:22.851Z,54.80
2017-03-01T04:45:42.547Z,54.80
2017-03-01T04:46:32.181Z,54.80
2017-03-01T04:47:28.337Z,54.80
2017-03-01T04:48:32.088Z,54.80
2017-03-01T04:49:27.288Z,is
2017-03-01T04:50:32.259Z,54.90
2017-03-01T04:51:31.522Z,55.00
2017-03-01T04:52:35.766Z,54.90
2017-03-01T04:53:36.296Z,54.90
2017-03-01T04:54:32.085Z,55.00
2017-03-01T04:55:30.832Z,55.00
2017-03-01T04:56:33.351Z,55.00
2017-03-01T04:57:32.726Z,55.10
2017-03-01T04:58:28.615Z,55.00
2017-03-01T04:59:32.102Z,55.10
2017-03-01T05:00:31.073Z,55.20
2017-03-01T05:01:28.021Z,55.00
2017-03-01T05:02:36.551Z,55.10
2017-03-01T05:03:37.650Z,55.30
2017-03-01T05:04:32.049Z,55.20
2017-03-01T05:05:37.828Z,55.20
2017-03-01T05:06:37.230Z,55.20
2017-03-01T05:07:28.711Z,55.20
2017-03-01T05:08:33.719Z,55.20
2017-03-01T05:09:44.781Z,55.40
2017-03-01T05:10:28.492Z,55.10
2017-03-01T05:11:36.521Z,55.20
2017-03-01T05:12:31.997Z,is
2017-03-01T05:13:32.788Z,55.10
2017-03-01T05:14:36.708Z,55.10
2017-03-01T05:15:32.355Z,55.10
2017-03-01T05:16:32.655Z,55.10
2017-03-01T05:17:42.104Z,55.20
2017-03-01T05:18:32.699Z,55.20
2017-03-01T05:19:33.556Z,55.10
2017-03-01T05:20:32.846Z,is
2017-03-01T05:21:26.580Z,55.10
2017-03-01T05:22:31.457Z,55.20
2017-03-01T05:23:38.001Z,55.20
2017-03-01T05:24:38.635Z,55.10
2017-03-01T05:25:43.843Z,55.10
2017-03-01T05:26:38.815Z,55.10
2017-03-01T05:27:27.347Z,55.10
2017-03-01T05:28:39.812Z,55.10
2017-03-01T05:29:28.015Z,55.30
2017-03-01T05:30:26.388Z,55.30
2017-03-01T05:31:36.678Z,55.10
2017-03-01T05:32:32.059Z,55.20
2017-03-01T05:33:27.601Z,is
2017-03-01T05:34:22.652Z,55.20
2017-03-01T05:35:32.456Z,55.30
2017-03-01T05:36:37.374Z,55.40
2017-03-01T05:37:31.031Z,55.30
2017-03-01T05:38:30.242Z,55.30
2017-03-01T05:39:32.660Z,55.30
2017-03-01T05:41:30.523Z,55.40
2017-03-01T05:42:32.792Z,55.30
2017-03-01T05:43:26.804Z,55.30
2017-03-01T05:44:27.171Z,is
2017-03-01T05:45:32.124Z,55.30
2017-03-01T05:46:26.131Z,55.20
2017-03-01T05:47:29.130Z,55.20
2017-03-01T05:48:31.525Z,55.30
2017-03-01T05:49:37.445Z,55.30
2017-03-01T05:50:31.207Z,55.20
2017-03-01T05:51:37.870Z,55.30
2017-03-01T05:52:33.089Z,55.20
2017-03-01T05:53:30.463Z,55.30
2017-03-01T05:54:37.572Z,55.30
2017-03-01T05:55:27.439Z,55.20
2017-03-01T05:56:36.808Z,55.30
2017-03-01T05:57:27.933Z,55.40
2017-03-01T05:58:43.331Z,is
2017-03-01T05:59:36.506Z,55.30
2017-03-01T06:00:31.247Z,55.30
2017-03-01T06:01:36.090Z,55.30
2017-03-01T06:02:37.151Z,55.40
2017-03-01T06:03:28.558Z,55.30
2017-03-01T06:04:33.827Z,55.40
2017-03-01T06:05:34.733Z,55.40
2017-03-01T06:06:35.560Z,55.30
2017-03-01T06:07:27.558Z,55.30
2017-03-01T06:08:37.018Z,55.40
2017-03-01T06:09:37.278Z,55.50
2017-03-01T06:10:32.674Z,55.30
2017-03-01T06:11:32.318Z,55.40
2017-03-01T06:12:40.752Z,55.50
2017-03-01T06:13:26.214Z,55.50
2017-03-01T06:14:37.689Z,55.40
2017-03-01T06:15:33.131Z,is
2017-03-01T06:16:34.848Z,55.40
2017-03-01T06:17:42.881Z,55.40
2017-03-01T06:18:41.650Z,55.40
2017-03-01T06:19:39.837Z,55.20
2017-03-01T06:20:37.879Z,55.20
2017-03-01T06:21:32.539Z,55.40
2017-03-01T06:22:33.977Z,55.10
2017-03-01T06:23:32.070Z,is
2017-03-01T06:24:36.587Z,55.10
2017-03-01T06:25:37.831Z,55.30
2017-03-01T06:26:37.888Z,is
2017-03-01T06:27:28.989Z,55.30
2017-03-01T06:28:30.093Z,55.30
2017-03-01T06:29:26.921Z,55.30
2017-03-01T06:30:28.801Z,is
2017-03-01T06:31:26.665Z,55.70
2017-03-01T06:32:29.096Z,55.00
2017-03-01T06:33:33.949Z,55.40
2017-03-01T06:34:26.266Z,55.20
2017-03-01T06:35:32.289Z,55.30
2017-03-01T06:36:37.898Z,55.30
2017-03-01T06:37:37.947Z,55.30
2017-03-01T06:38:36.947Z,55.40
2017-03-01T06:39:31.993Z,55.40
2017-03-01T06:40:36.015Z,55.30
2017-03-01T06:41:28.605Z,55.40
2017-03-01T06:42:42.621Z,55.30
2017-03-01T06:43:37.358Z,55.20
2017-03-01T06:44:37.815Z,55.20
2017-03-01T06:45:32.120Z,55.30
2017-03-01T06:46:29.060Z,55.30
2017-03-01T06:47:16.161Z,55.30
2017-03-01T06:48:21.128Z,55.40
2017-03-01T06:49:18.346Z,55.30
2017-03-01T06:50:16.303Z,55.40
2017-03-01T06:51:15.620Z,55.40
2017-03-01T06:52:14.811Z,55.30
2017-03-01T06:53:14.136Z,55.30
2017-03-01T06:54:20.451Z,56.00
2017-03-01T06:55:17.311Z,55.40
2017-03-01T06:56:25.057Z,55.40
2017-03-01T06:57:15.870Z,55.40
2017-03-01T06:58:16.418Z,is
2017-03-01T06:59:18.331Z,55.50
2017-03-01T07:00:17.238Z,55.40
2017-03-01T07:01:18.011Z,55.50
2017-03-01T07:02:19.029Z,55.50
2017-03-01T07:03:18.674Z,55.40
2017-03-01T07:04:16.008Z,55.50
2017-03-01T07:05:17.470Z,55.50
2017-03-01T07:06:15.384Z,55.60
2017-03-01T07:07:26.177Z,55.50
2017-03-01T07:08:16.450Z,55.60
2017-03-01T07:09:21.094Z,55.60
2017-03-01T07:10:14.915Z,55.70
2017-03-01T07:11:16.866Z,55.70
2017-03-01T07:12:20.484Z,55.70
2017-03-01T07:13:21.694Z,55.70
2017-03-01T07:14:21.401Z,55.70
2017-03-01T07:15:16.210Z,55.50
2017-03-01T07:16:14.816Z,55.70
2017-03-01T07:17:17.319Z,55.70
2017-03-01T07:18:18.368Z,55.70
2017-03-01T07:19:36.334Z,55.80
2017-03-01T07:20:32.080Z,55.60
2017-03-01T07:21:32.163Z,55.70
2017-03-01T07:22:33.513Z,55.60
2017-03-01T07:23:32.052Z,55.70
2017-03-01T07:24:27.645Z,55.70
2017-03-01T07:25:27.968Z,55.80
2017-03-01T07:26:32.123Z,55.70
2017-03-01T07:27:28.227Z,55.70
2017-03-01T07:28:26.940Z,55.60
2017-03-01T07:29:22.668Z,55.80
2017-03-01T07:30:36.188Z,55.70
2017-03-01T07:31:32.042Z,55.80
2017-03-01T07:32:37.999Z,55.70
2017-03-01T07:33:27.778Z,is
2017-03-01T07:34:32.193Z,is
2017-03-01T07:35:32.028Z,55.70
2017-03-01T07:36:28.503Z,55.80
2017-03-01T07:37:36.374Z,55.70
2017-03-01T07:38:32.682Z,55.70
2017-03-01T07:39:38.001Z,55.70
2017-03-01T07:40:34.334Z,56.40
2017-03-01T07:41:35.660Z,55.70
2017-03-01T07:42:32.675Z,55.70
2017-03-01T07:43:35.634Z,55.80
2017-03-01T07:44:36.803Z,is
2017-03-01T07:45:32.804Z,55.70
2017-03-01T07:46:29.660Z,55.70
2017-03-01T07:47:28.534Z,55.80
2017-03-01T07:48:35.535Z,56.00
2017-03-01T07:49:34.822Z,55.70
2017-03-01T07:50:35.295Z,55.80
2017-03-01T07:51:35.817Z,55.80
2017-03-01T07:52:33.176Z,is
2017-03-01T07:53:36.260Z,55.70
2017-03-01T07:54:28.279Z,55.70
2017-03-01T07:55:37.809Z,55.70
2017-03-01T07:56:43.008Z,55.70
2017-03-01T07:57:37.800Z,55.70
2017-03-01T07:58:26.267Z,55.80
2017-03-01T07:59:35.805Z,55.70
2017-03-01T08:00:32.930Z,55.80
2017-03-01T08:01:36.591Z,55.70
2017-03-01T08:02:26.572Z,55.70
2017-03-01T08:03:38.044Z,55.70
2017-03-01T08:04:27.911Z,55.80
2017-03-01T08:05:32.281Z,55.80
2017-03-01T08:06:35.515Z,55.70
2017-03-01T08:07:32.095Z,55.80
2017-03-01T08:08:30.206Z,55.70
2017-03-01T08:09:40.635Z,55.60
2017-03-01T08:10:32.336Z,55.70
2017-03-01T08:11:33.090Z,55.60
2017-03-01T08:12:34.198Z,54.70
2017-03-01T08:13:26.446Z,55.70
2017-03-01T08:14:27.867Z,55.60
2017-03-01T08:15:36.605Z,55.60
2017-03-01T08:16:36.839Z,55.60
2017-03-01T08:17:32.487Z,55.60
2017-03-01T08:18:29.159Z,55.70
2017-03-01T08:19:33.270Z,55.70
2017-03-01T08:20:29.536Z,55.60
2017-03-01T08:21:27.919Z,54.90
2017-03-01T08:22:46.935Z,54.90
2017-03-01T08:23:32.209Z,54.70
2017-03-01T08:24:36.309Z,54.60
2017-03-01T08:25:26.950Z,54.50
2017-03-01T08:26:36.304Z,54.40
2017-03-01T08:27:31.913Z,54.40
2017-03-01T08:28:32.570Z,is
2017-03-01T08:29:22.392Z,54.20
2017-03-01T08:30:25.867Z,54.30
2017-03-01T08:31:30.616Z,54.10
2017-03-01T08:32:32.413Z,54.20
2017-03-01T08:33:36.808Z,54.00
2017-03-01T08:34:31.933Z,54.00
2017-03-01T08:35:37.012Z,53.90
2017-03-01T08:36:37.650Z,53.90
2017-03-01T08:37:36.264Z,53.90
2017-03-01T08:38:28.143Z,53.90
2017-03-01T08:39:46.317Z,53.80
2017-03-01T08:40:31.207Z,53.80
2017-03-01T08:41:34.661Z,53.20
2017-03-01T08:42:32.369Z,is
2017-03-01T08:43:36.309Z,53.90
2017-03-01T08:44:31.007Z,53.80
2017-03-01T08:45:37.820Z,53.80
2017-03-01T08:46:36.734Z,53.80
2017-03-01T08:47:34.060Z,is
2017-03-01T08:48:28.193Z,is
2017-03-01T08:49:36.306Z,53.90
2017-03-01T08:50:37.531Z,53.90
2017-03-01T08:51:28.240Z,53.90
2017-03-01T08:52:38.077Z,53.80
2017-03-01T08:53:36.935Z,53.80
2017-03-01T08:54:36.684Z,53.70
2017-03-01T08:55:32.661Z,53.80
2017-03-01T08:56:35.699Z,53.70
2017-03-01T08:57:29.421Z,53.80
2017-03-01T08:58:33.795Z,53.70
2017-03-01T08:59:29.951Z,53.60
2017-03-01T09:00:32.684Z,53.70
2017-03-01T09:01:28.117Z,53.70
2017-03-01T09:02:30.378Z,53.60
2017-03-01T09:03:32.571Z,is
2017-03-01T09:04:28.345Z,53.60
2017-03-01T09:05:32.347Z,53.60
2017-03-01T09:06:33.372Z,53.60
2017-03-01T09:07:35.889Z,53.40
2017-03-01T09:08:28.988Z,53.40
2017-03-01T09:09:38.420Z,53.40
2017-03-01T09:10:29.787Z,53.40
2017-03-01T09:11:27.773Z,53.30
2017-03-01T09:12:33.486Z,53.30
2017-03-01T09:13:32.060Z,53.20
2017-03-01T09:14:32.172Z,53.30
2017-03-01T09:15:28.354Z,is
2017-03-01T09:16:32.939Z,53.10
2017-03-01T09:17:28.073Z,53.10
2017-03-01T09:18:37.047Z,53.10
2017-03-01T09:19:36.391Z,53.10
2017-03-01T09:20:38.450Z,53.20
2017-03-01T09:21:33.651Z,53.20
2017-03-01T09:23:28.517Z,53.40
2017-03-01T09:24:36.388Z,53.10
2017-03-01T09:25:30.391Z,53.00
2017-03-01T09:26:29.770Z,53.20
2017-03-01T09:27:26.958Z,53.00
2017-03-01T09:28:37.870Z,53.10
2017-03-01T09:29:32.264Z,53.10
2017-03-01T09:30:42.618Z,53.00
2017-03-01T09:31:37.062Z,is
2017-03-01T09:32:34.224Z,53.10
2017-03-01T09:33:29.071Z,53.40
2017-03-01T09:34:36.979Z,53.00
2017-03-01T09:35:32.190Z,53.00
2017-03-01T09:36:38.039Z,53.00
2017-03-01T09:37:29.004Z,53.00
2017-03-01T09:38:32.725Z,53.10
2017-03-01T09:39:36.563Z,53.00
2017-03-01T09:40:28.653Z,is
2017-03-01T09:41:34.193Z,53.00
2017-03-01T09:42:47.305Z,53.00
2017-03-01T09:43:31.923Z,53.00
2017-03-01T09:44:27.698Z,is
2017-03-01T09:45:33.315Z,53.00
2017-03-01T09:46:32.175Z,52.90
2017-03-01T09:47:33.143Z,53.00
2017-03-01T09:48:47.781Z,53.10
2017-03-01T09:49:37.716Z,53.00
2017-03-01T09:50:32.428Z,53.00
2017-03-01T09:51:32.449Z,53.00
2017-03-01T09:52:41.937Z,53.00
2017-03-01T09:53:36.384Z,53.00
2017-03-01T09:54:36.371Z,53.00
2017-03-01T09:55:40.482Z,52.90
2017-03-01T09:56:31.897Z,53.00
2017-03-01T09:57:28.610Z,52.90
2017-03-01T09:58:32.740Z,53.00
2017-03-01T09:59:32.414Z,53.00
2017-03-01T10:00:35.333Z,53.00
2017-03-01T10:01:37.623Z,52.90
2017-03-01T10:02:36.451Z,52.90
2017-03-01T10:03:35.176Z,53.00
2017-03-01T10:04:28.789Z,52.90
2017-03-01T10:05:42.722Z,52.90
2017-03-01T10:06:28.654Z,53.00
2017-03-01T10:07:46.451Z,53.00
2017-03-01T10:08:40.405Z,52.90
2017-03-01T10:09:42.107Z,52.90
2017-03-01T10:10:30.905Z,52.90
2017-03-01T10:11:32.507Z,52.90
2017-03-01T10:12:32.300Z,52.90
2017-03-01T10:13:36.300Z,52.90
2017-03-01T10:14:32.270Z,52.90
2017-03-01T10:15:33.197Z,52.90
2017-03-01T10:16:26.788Z,52.80
2017-03-01T10:17:32.396Z,52.90
2017-03-01T10:18:30.544Z,52.90
2017-03-01T10:19:33.011Z,52.90
2017-03-01T10:20:32.677Z,52.80
2017-03-01T10:21:38.030Z,52.80
2017-03-01T10:22:33.620Z,52.90
2017-03-01T10:23:33.480Z,is
2017-03-01T10:24:47.204Z,is
2017-03-01T10:25:42.986Z,52.80
2017-03-01T10:26:37.868Z,52.70
2017-03-01T10:27:38.346Z,52.80
2017-03-01T10:28:28.770Z,52.90
2017-03-01T10:29:28.168Z,is
2017-03-01T10:30:28.783Z,52.70
2017-03-01T10:31:28.085Z,is
2017-03-01T10:32:36.636Z,52.70
2017-03-01T10:33:33.599Z,52.90
2017-03-01T10:34:34.008Z,52.70
2017-03-01T10:35:28.435Z,52.80
2017-03-01T10:36:32.688Z,52.70
2017-03-01T10:37:36.653Z,52.80
2017-03-01T10:38:36.158Z,52.60
2017-03-01T10:39:36.869Z,52.70
2017-03-01T10:40:31.036Z,52.70
2017-03-01T10:41:32.065Z,52.90
2017-03-01T10:42:36.503Z,52.60
2017-03-01T10:43:26.321Z,52.90
2017-03-01T10:44:32.055Z,52.80
2017-03-01T10:45:33.984Z,52.80
2017-03-01T10:46:43.383Z,52.70
2017-03-01T10:47:37.817Z,52.70
2017-03-01T10:48:40.901Z,52.80
2017-03-01T10:49:32.222Z,52.60
2017-03-01T10:50:26.466Z,52.70
2017-03-01T10:51:27.841Z,52.70
2017-03-01T10:52:30.893Z,52.70
2017-03-01T10:53:34.162Z,52.60
2017-03-01T10:54:33.485Z,52.70
2017-03-01T10:55:34.615Z,52.70
2017-03-01T10:56:33.442Z,52.60
2017-03-01T10:57:36.433Z,52.70
2017-03-01T10:58:38.469Z,52.80
2017-03-01T10:59:28.080Z,52.70
2017-03-01T11:00:32.753Z,is
2017-03-01T11:01:28.563Z,52.70
2017-03-01T11:02:37.661Z,52.90
2017-03-01T11:03:28.519Z,52.80
2017-03-01T11:04:32.743Z,53.00
2017-03-01T11:05:36.259Z,52.70
2017-03-01T11:06:34.399Z,52.70
2017-03-01T11:07:42.417Z,52.60
2017-03-01T11:08:36.216Z,52.70
2017-03-01T11:09:26.945Z,52.80
2017-03-01T11:10:30.952Z,52.70
2017-03-01T11:11:32.959Z,52.70
2017-03-01T11:12:36.373Z,52.70
2017-03-01T11:13:33.488Z,52.60
2017-03-01T11:14:36.496Z,52.50
2017-03-01T11:15:35.001Z,52.60
2017-03-01T11:16:36.098Z,52.60
2017-03-01T11:17:27.806Z,52.50
2017-03-01T11:18:28.638Z,52.70
2017-03-01T11:19:37.760Z,52.50
2017-03-01T11:20:28.555Z,52.60
2017-03-01T11:21:39.663Z,52.60
2017-03-01T11:22:32.066Z,52.10
2017-03-01T11:23:42.070Z,52.60
2017-03-01T11:24:35.977Z,52.60
2017-03-01T11:25:34.183Z,52.80
2017-03-01T11:26:37.799Z,52.60
2017-03-01T11:27:36.859Z,52.60
2017-03-01T11:28:36.967Z,52.60
2017-03-01T11:29:28.342Z,52.90
2017-03-01T11:30:38.309Z,52.70
2017-03-01T11:31:37.150Z,52.50
2017-03-01T11:32:27.730Z,is
2017-03-01T11:33:21.747Z,52.50
2017-03-01T11:34:41.202Z,52.50
2017-03-01T11:35:36.645Z,52.60
2017-03-01T11:36:31.218Z,52.60
2017-03-01T11:37:36.332Z,52.50
2017-03-01T11:38:36.391Z,52.50
2017-03-01T11:39:31.933Z,52.50
2017-03-01T11:40:32.193Z,52.50
2017-03-01T11:41:37.738Z,52.50
2017-03-01T11:42:26.943Z,52.50
2017-03-01T11:43:37.273Z,52.40
2017-03-01T11:44:22.227Z,53.00
2017-03-01T11:45:39.196Z,52.40
2017-03-01T11:46:37.783Z,52.60
2017-03-01T11:47:31.953Z,52.50
2017-03-01T11:48:32.118Z,is
2017-03-01T11:49:28.329Z,52.60
2017-03-01T11:50:36.519Z,52.50
2017-03-01T11:51:32.734Z,52.60
2017-03-01T11:52:37.191Z,is
2017-03-01T11:53:37.039Z,52.50
2017-03-01T11:54:47.460Z,52.60
2017-03-01T11:55:40.840Z,52.50
2017-03-01T11:56:28.332Z,52.50
2017-03-01T11:57:37.020Z,is
2017-03-01T11:58:47.545Z,52.50
2017-03-01T11:59:37.535Z,52.50
2017-03-01T12:00:33.755Z,52.50
2017-03-01T12:01:35.775Z,52.50
2017-03-01T12:02:47.093Z,52.40
2017-03-01T12:03:40.566Z,52.50
2017-03-01T12:04:32.025Z,52.50
2017-03-01T12:05:33.182Z,52.50
2017-03-01T12:06:27.896Z,is
2017-03-01T12:07:32.455Z,52.50
2017-03-01T12:08:42.337Z,is
2017-03-01T12:09:36.514Z,52.50
2017-03-01T12:10:34.867Z,52.50
2017-03-01T12:11:34.380Z,52.50
2017-03-01T12:12:36.530Z,52.50
2017-03-01T12:13:37.157Z,52.60
2017-03-01T12:14:46.807Z,52.50
2017-03-01T12:15:30.815Z,52.50
2017-03-01T12:16:37.899Z,52.50
2017-03-01T12:17:32.271Z,52.40
2017-03-01T12:18:42.207Z,52.40
2017-03-01T12:19:32.633Z,52.50
2017-03-01T12:20:37.616Z,52.30
2017-03-01T12:21:46.962Z,52.50
2017-03-01T12:22:35.315Z,52.50
2017-03-01T12:23:28.387Z,52.60
2017-03-01T12:24:40.733Z,52.30
2017-03-01T12:25:26.147Z,52.30
2017-03-01T12:26:34.318Z,52.40
2017-03-01T12:27:30.825Z,52.40
2017-03-01T12:28:38.079Z,is
2017-03-01T12:29:36.195Z,52.30
2017-03-01T12:30:32.553Z,52.40
2017-03-01T12:31:47.769Z,52.40
2017-03-01T12:32:36.509Z,52.50
2017-03-01T12:33:30.849Z,52.30
2017-03-01T12:34:26.432Z,52.30
2017-03-01T12:35:32.903Z,52.30
2017-03-01T12:36:36.965Z,52.40
2017-03-01T12:37:31.865Z,52.30
2017-03-01T12:38:36.518Z,52.30
2017-03-01T12:39:35.899Z,52.40
2017-03-01T12:40:36.327Z,52.50
2017-03-01T12:41:32.272Z,52.40
2017-03-01T12:42:37.317Z,52.40
2017-03-01T12:43:32.338Z,52.30
2017-03-01T12:44:27.805Z,is
2017-03-01T12:45:38.589Z,52.30
2017-03-01T12:46:27.769Z,52.30
2017-03-01T12:47:47.095Z,52.30
2017-03-01T12:48:33.024Z,52.40
2017-03-01T12:49:31.614Z,52.40
2017-03-01T12:50:26.363Z,52.40
2017-03-01T12:51:37.731Z,52.30
2017-03-01T12:52:37.552Z,is
2017-03-01T12:53:28.085Z,52.40
2017-03-01T12:54:42.345Z,52.30
2017-03-01T12:55:36.406Z,52.30
2017-03-01T12:56:31.977Z,52.30
2017-03-01T12:57:38.338Z,52.30
2017-03-01T12:58:28.215Z,52.40
2017-03-01T12:59:32.132Z,52.40
2017-03-01T13:00:27.902Z,is